Time;durP1;ratioP1;P1;durP2;ratioP2;P2;SDS_P1;SDS_P2;PMS_P1;PMS_P2;Temp;Humidity;BMP_temperature;BMP_pressure;BME280_temperature;BME280_humidity;BME280_pressure;Samples;Min_cycle;Max_cycle;Signal;HPM_P1;HPM_P2
2021/05/29 00:00:59;;;;;;;6.87;4.97;;;;;;;16.30;63.14;99001.36;1733016;80;20985;-63
2021/05/29 00:03:26;;;;;;;4.17;3.67;;;;;;;16.24;63.10;98993.66;1750617;81;20923;-61
2021/05/29 00:05:53;;;;;;;4.40;3.10;;;;;;;16.23;63.00;98999.25;1778860;79;21074;-62
2021/05/29 00:08:19;;;;;;;5.17;2.83;;;;;;;16.18;62.94;98991.03;1747274;81;20978;-62
2021/05/29 00:10:50;;;;;;;4.03;3.02;;;;;;;16.14;63.05;98994.66;1732290;81;21062;-64
2021/05/29 00:13:21;;;;;;;4.10;2.90;;;;;;;16.14;63.03;98991.98;1782554;77;21474;-60
2021/05/29 00:15:47;;;;;;;3.85;2.67;;;;;;;16.08;63.06;98989.36;1792694;77;21552;-61
2021/05/29 00:18:14;;;;;;;3.50;3.05;;;;;;;16.08;63.22;98995.00;1781754;77;21159;-62
2021/05/29 00:20:42;;;;;;;4.15;3.50;;;;;;;16.11;63.23;98996.47;1783176;79;20984;-58
2021/05/29 00:23:10;;;;;;;5.22;3.35;;;;;;;16.14;63.27;98996.00;1787062;79;21347;-61
2021/05/29 00:25:37;;;;;;;7.28;3.42;;;;;;;16.19;63.24;98994.03;1786406;79;21569;-61
2021/05/29 00:28:04;;;;;;;4.85;4.05;;;;;;;16.21;63.12;98993.29;1789601;77;20948;-61
2021/05/29 00:30:31;;;;;;;4.78;3.87;;;;;;;16.24;63.06;98986.94;1783940;79;21109;-62
2021/05/29 00:32:57;;;;;;;5.45;3.55;;;;;;;16.25;62.91;98981.06;1783788;79;20964;-61
2021/05/29 00:35:24;;;;;;;4.28;3.62;;;;;;;16.24;62.93;98980.23;1793962;77;20917;-62
2021/05/29 00:37:50;;;;;;;5.47;3.75;;;;;;;16.23;62.95;98983.15;1790240;79;20897;-59
2021/05/29 00:40:18;;;;;;;7.28;4.05;;;;;;;16.18;63.04;98982.47;1775296;79;20884;-59
2021/05/29 00:42:45;;;;;;;7.28;4.75;;;;;;;16.17;63.06;98976.78;1782718;77;21083;-59
2021/05/29 00:45:13;;;;;;;6.60;5.25;;;;;;;16.22;63.00;98976.12;1779243;79;21115;-59
2021/05/29 00:47:39;;;;;;;6.08;4.62;;;;;;;16.21;63.00;98971.82;1805519;77;20951;-62
2021/05/29 00:50:10;;;;;;;8.00;5.58;;;;;;;16.26;63.04;98967.95;1791977;79;20972;-59
2021/05/29 00:52:36;;;;;;;9.75;5.92;;;;;;;16.23;63.02;98965.19;1783204;77;20989;-61
2021/05/29 00:55:09;;;;;;;9.20;6.92;;;;;;;16.17;62.94;98973.27;1795455;79;20972;-61
2021/05/29 00:57:40;;;;;;;9.80;6.30;;;;;;;16.10;63.02;98969.31;1808549;77;20996;-59
2021/05/29 01:00:09;;;;;;;8.03;5.55;;;;;;;16.06;63.16;98972.95;1795982;79;20956;-61
2021/05/29 01:02:35;;;;;;;10.10;5.65;;;;;;;16.07;63.20;98967.06;1800581;77;21011;-59
2021/05/29 01:05:03;;;;;;;7.10;5.20;;;;;;;16.08;63.07;98967.38;1787522;77;20945;-60
2021/05/29 01:07:31;;;;;;;6.87;5.35;;;;;;;16.05;63.00;98969.15;1802484;77;21051;-61
2021/05/29 01:09:58;;;;;;;6.33;4.97;;;;;;;16.03;63.07;98967.21;1793165;77;20979;-61
2021/05/29 01:12:24;;;;;;;7.05;5.15;;;;;;;16.03;63.10;98968.55;1790299;77;22370;-60
2021/05/29 01:14:55;;;;;;;7.75;4.90;;;;;;;15.97;63.33;98963.53;1794447;77;21086;-60
2021/05/29 01:17:20;;;;;;;5.17;3.70;;;;;;;15.88;63.72;98963.47;1789208;78;21527;-61
2021/05/29 01:19:46;;;;;;;4.58;3.95;;;;;;;15.78;63.82;98962.30;1736401;80;21055;-61
2021/05/29 01:22:13;;;;;;;5.55;4.10;;;;;;;15.74;63.96;98965.95;1798868;77;21614;-60
2021/05/29 01:24:40;;;;;;;4.70;4.17;;;;;;;15.74;63.87;98965.13;1801428;77;20980;-63
2021/05/29 01:27:12;;;;;;;5.22;3.98;;;;;;;15.71;63.84;98962.36;1734694;80;20933;-61
2021/05/29 01:29:38;;;;;;;3.98;3.52;;;;;;;15.67;64.03;98963.02;1794196;77;20965;-60
2021/05/29 01:32:06;;;;;;;8.10;4.80;;;;;;;15.63;64.12;98966.63;1772648;78;21568;-63
2021/05/29 01:34:36;;;;;;;5.15;4.25;;;;;;;15.59;64.04;98963.27;1768472;78;20981;-62
2021/05/29 01:37:05;;;;;;;5.03;4.53;;;;;;;15.57;64.09;98969.33;1777963;78;20941;-60
2021/05/29 01:39:32;;;;;;;5.05;4.17;;;;;;;15.41;64.17;98967.42;1787937;78;21117;-61
2021/05/29 01:41:58;;;;;;;5.75;4.87;;;;;;;15.30;64.44;98969.96;1771282;77;20926;-59
2021/05/29 01:44:25;;;;;;;4.50;4.10;;;;;;;15.28;64.69;98970.16;1772866;78;21085;-61
2021/05/29 01:46:51;;;;;;;6.33;5.08;;;;;;;15.28;64.79;98972.01;1789914;78;21547;-60
2021/05/29 01:49:19;;;;;;;5.80;4.45;;;;;;;15.25;64.80;98969.78;1782317;78;21076;-61
2021/05/29 01:51:46;;;;;;;7.30;5.60;;;;;;;15.17;65.06;98964.11;1802251;78;21088;-63
2021/05/29 01:54:16;;;;;;;9.05;5.15;;;;;;;15.10;65.14;98966.52;1718168;81;21454;-63
2021/05/29 01:56:42;;;;;;;6.45;5.40;;;;;;;15.05;65.35;98967.16;1791761;78;20994;-61
2021/05/29 01:59:10;;;;;;;7.90;6.05;;;;;;;14.98;65.43;98965.02;1781262;79;21043;-62
2021/05/29 02:01:36;;;;;;;8.38;5.95;;;;;;;14.95;65.49;98965.44;1813792;78;21598;-63
2021/05/29 02:04:03;;;;;;;10.90;7.17;;;;;;;14.88;65.57;98961.14;1814341;77;20909;-64
2021/05/29 02:06:31;;;;;;;11.55;7.25;;;;;;;14.82;65.83;98963.63;1748544;79;20957;-64
2021/05/29 02:08:59;;;;;;;9.38;7.42;;;;;;;14.77;65.98;98964.77;1744028;79;20889;-63
2021/05/29 02:11:28;;;;;;;10.72;6.92;;;;;;;14.68;66.25;98965.17;1750435;79;21042;-60
2021/05/29 02:13:55;;;;;;;10.40;7.67;;;;;;;14.66;66.48;98969.41;1757084;79;21028;-62
2021/05/29 02:16:21;;;;;;;12.88;7.60;;;;;;;14.62;66.55;98969.54;1738148;81;21082;-63
2021/05/29 02:18:49;;;;;;;13.78;7.97;;;;;;;14.59;66.78;98967.78;1747582;79;20999;-61
2021/05/29 02:21:16;;;;;;;10.98;7.20;;;;;;;14.61;66.93;98972.41;1747222;81;21818;-61
2021/05/29 02:23:45;;;;;;;11.65;7.30;;;;;;;14.64;67.03;98976.84;1724865;81;21095;-62
2021/05/29 02:26:14;;;;;;;13.22;8.30;;;;;;;14.70;66.87;98977.32;1763288;79;21567;-59
2021/05/29 02:28:44;;;;;;;12.82;8.68;;;;;;;14.58;66.83;98982.18;1723091;82;21076;-59
2021/05/29 02:31:11;;;;;;;12.40;7.50;;;;;;;14.51;67.13;98983.55;1721612;82;21020;-60
2021/05/29 02:33:38;;;;;;;11.43;8.10;;;;;;;14.52;67.33;98981.16;1748236;81;21158;-61
2021/05/29 02:36:05;;;;;;;10.50;6.72;;;;;;;14.54;67.36;98976.95;1724170;82;21550;-60
2021/05/29 02:38:35;;;;;;;11.15;6.90;;;;;;;14.55;67.54;98979.91;1720056;82;21629;-63
2021/05/29 02:41:03;;;;;;;11.03;7.75;;;;;;;14.53;67.50;98978.80;1711982;81;21088;-61
2021/05/29 02:43:29;;;;;;;8.65;5.55;;;;;;;14.55;67.66;98976.73;1725910;81;21478;-61
2021/05/29 02:45:56;;;;;;;6.03;5.40;;;;;;;14.55;67.66;98976.73;1749581;80;21806;-62
2021/05/29 02:48:22;;;;;;;5.00;4.12;;;;;;;14.57;67.75;98973.33;1757166;79;21043;-62
2021/05/29 02:50:48;;;;;;;6.33;4.72;;;;;;;14.61;67.78;98973.23;1768214;79;22285;-62
2021/05/29 02:53:15;;;;;;;4.65;4.22;;;;;;;14.65;67.80;98977.13;1746340;79;21072;-61
2021/05/29 02:55:43;;;;;;;4.80;3.90;;;;;;;14.70;67.71;98976.52;1730068;81;21025;-60
2021/05/29 02:58:09;;;;;;;4.78;3.95;;;;;;;14.71;67.78;98983.00;1789103;77;21056;-60
2021/05/29 03:00:44;;;;;;;4.30;3.90;;;;;;;14.71;67.65;98977.64;1775830;78;20984;-62
2021/05/29 03:03:10;;;;;;;5.10;3.60;;;;;;;14.63;67.91;98981.88;1795454;78;20957;-62
2021/05/29 03:05:38;;;;;;;4.03;3.65;;;;;;;14.67;68.29;98981.78;1763343;79;20993;-59
2021/05/29 03:08:05;;;;;;;3.87;3.58;;;;;;;14.81;68.30;98983.89;1726027;81;20931;-60
2021/05/29 03:10:34;;;;;;;4.50;3.80;;;;;;;14.98;67.94;98988.30;1736813;80;21009;-62
2021/05/29 03:13:01;;;;;;;5.25;3.87;;;;;;;15.08;67.73;98984.15;1783114;78;20999;-60
2021/05/29 03:15:28;;;;;;;4.50;4.15;;;;;;;15.10;67.83;98979.91;1766082;79;20978;-61
2021/05/29 03:17:55;;;;;;;4.87;4.45;;;;;;;15.22;67.69;98980.91;1737080;81;20999;-61
2021/05/29 03:20:27;;;;;;;5.00;4.50;;;;;;;15.26;67.57;98979.45;1734774;81;21013;-61
2021/05/29 03:22:53;;;;;;;5.67;4.55;;;;;;;15.36;67.38;98978.47;1730549;80;21130;-62
2021/05/29 03:25:20;;;;;;;5.67;5.17;;;;;;;15.60;67.14;98980.46;1740541;79;20945;-59
2021/05/29 03:27:49;;;;;;;6.15;5.53;;;;;;;15.98;66.99;98976.44;1729841;81;20962;-60
2021/05/29 03:30:18;;;;;;;7.80;7.00;;;;;;;16.45;66.21;98978.52;1762297;80;21630;-62
2021/05/29 03:32:46;;;;;;;11.03;8.38;;;;;;;17.03;64.90;98971.47;1746757;79;21047;-60
2021/05/29 03:35:12;;;;;;;10.82;7.83;;;;;;;17.51;62.97;98966.97;1742102;80;21077;-60
2021/05/29 03:37:39;;;;;;;9.63;6.97;;;;;;;17.86;61.52;98969.81;1731620;79;21399;-62
2021/05/29 03:40:07;;;;;;;13.48;9.28;;;;;;;18.05;60.45;98966.02;1705851;81;21548;-61
2021/05/29 03:42:34;;;;;;;16.52;9.88;;;;;;;18.15;59.59;98967.61;1722825;82;21037;-60
2021/05/29 03:45:00;;;;;;;18.80;12.00;;;;;;;18.12;58.89;98966.72;1741078;81;21474;-62
2021/05/29 03:47:27;;;;;;;17.85;11.45;;;;;;;18.02;58.59;98966.98;1746456;80;21012;-64
2021/05/29 03:49:54;;;;;;;16.45;11.73;;;;;;;17.85;58.72;98966.84;1738886;79;21038;-60
2021/05/29 03:52:21;;;;;;;13.83;9.55;;;;;;;17.72;59.06;98968.38;1740286;80;20932;-61
2021/05/29 03:54:47;;;;;;;14.38;9.85;;;;;;;17.65;59.24;98969.00;1781453;78;21594;-61
2021/05/29 03:57:13;;;;;;;11.25;8.98;;;;;;;17.59;59.43;98965.34;1775120;79;21448;-60
2021/05/29 03:59:40;;;;;;;10.28;8.98;;;;;;;17.59;59.39;98963.17;1783755;79;21116;-62
2021/05/29 04:02:06;;;;;;;12.88;9.65;;;;;;;17.76;59.18;98961.48;1772242;79;20969;-62
2021/05/29 04:04:34;;;;;;;13.85;10.13;;;;;;;17.84;58.93;98952.56;1779468;77;20898;-61
2021/05/29 04:07:00;;;;;;;12.53;10.30;;;;;;;17.99;58.54;98954.02;1779705;77;21446;-61
2021/05/29 04:09:27;;;;;;;15.38;9.88;;;;;;;18.23;58.11;98956.52;1731992;80;21612;-60
2021/05/29 04:11:54;;;;;;;11.45;8.75;;;;;;;18.52;57.74;98950.78;1806380;78;21031;-61
2021/05/29 04:14:20;;;;;;;11.12;7.72;;;;;;;18.73;56.96;98956.11;1787302;78;21084;-58
2021/05/29 04:16:49;;;;;;;12.15;8.45;;;;;;;18.90;56.23;98951.66;1790642;79;21043;-62
2021/05/29 04:19:16;;;;;;;12.78;7.85;;;;;;;18.95;55.73;98953.11;1789739;79;21081;-61
2021/05/29 04:21:42;;;;;;;14.95;8.73;;;;;;;18.91;55.26;98951.41;1784808;79;21510;-61
2021/05/29 04:24:09;;;;;;;11.22;8.55;;;;;;;18.84;55.14;98947.20;1786897;79;21051;-61
2021/05/29 04:26:36;;;;;;;12.40;9.60;;;;;;;18.76;55.17;98957.81;1752177;80;21066;-60
2021/05/29 04:29:03;;;;;;;10.58;7.87;;;;;;;18.69;55.27;98957.13;1789106;79;21549;-61
2021/05/29 04:31:29;;;;;;;9.68;7.40;;;;;;;18.84;55.16;98962.02;1783213;79;20996;-59
2021/05/29 04:34:01;;;;;;;10.53;7.55;;;;;;;19.37;55.05;98960.47;1788628;79;21032;-61
2021/05/29 04:36:27;;;;;;;8.63;7.28;;;;;;;20.32;53.36;98954.70;1783013;79;22021;-61
2021/05/29 04:38:54;;;;;;;9.68;7.25;;;;;;;21.02;51.63;98946.00;1754980;80;21013;-61
2021/05/29 04:41:21;;;;;;;7.83;6.35;;;;;;;21.27;50.34;98940.97;1790347;79;20972;-62
2021/05/29 04:43:48;;;;;;;8.10;5.40;;;;;;;21.20;49.68;98946.56;1810434;77;20969;-61
2021/05/29 04:46:14;;;;;;;18.62;10.88;;;;;;;21.06;49.42;98946.66;1794934;79;21542;-60
2021/05/29 04:48:41;;;;;;;7.12;6.42;;;;;;;21.15;49.37;98948.38;1836314;77;21067;-61
2021/05/29 04:51:15;;;;;;;6.58;5.35;;;;;;;21.41;49.05;98947.63;1792952;77;20984;-61
2021/05/29 04:53:43;;;;;;;4.10;3.70;;;;;;;21.71;48.50;98953.39;1835066;77;20980;-61
2021/05/29 04:56:14;;;;;;;6.78;4.00;;;;;;;22.10;47.71;98948.13;1830420;77;21495;-61
2021/05/29 04:58:41;;;;;;;4.12;3.52;;;;;;;22.81;46.50;98943.81;1803471;79;20912;-60
2021/05/29 05:01:10;;;;;;;5.60;3.40;;;;;;;23.33;44.45;98946.78;1830770;77;21738;-61
2021/05/29 05:03:37;;;;;;;3.72;3.42;;;;;;;23.74;43.66;98946.95;1784962;78;20948;-61
2021/05/29 05:06:04;;;;;;;4.42;3.50;;;;;;;24.71;42.07;98943.22;1793441;77;20961;-61
2021/05/29 05:08:31;;;;;;;3.20;2.87;;;;;;;25.81;40.24;98940.69;1764059;80;21529;-64
2021/05/29 05:10:59;;;;;;;4.70;3.25;;;;;;;26.66;38.33;98931.58;1792426;79;20937;-61
2021/05/29 05:13:26;;;;;;;3.75;3.20;;;;;;;27.48;36.78;98929.86;1825286;77;21062;-61
2021/05/29 05:15:53;;;;;;;4.00;3.00;;;;;;;28.33;35.25;98926.18;1772141;79;20976;-61
2021/05/29 05:18:21;;;;;;;4.15;3.10;;;;;;;29.11;33.60;98928.88;1773765;79;21534;-62
2021/05/29 05:20:47;;;;;;;5.03;3.60;;;;;;;29.74;32.21;98927.58;1778021;79;21132;-61
2021/05/29 05:23:13;;;;;;;3.15;2.87;;;;;;;30.04;31.53;98920.03;1778478;79;21070;-61
2021/05/29 05:25:41;;;;;;;3.15;2.85;;;;;;;30.45;30.96;98923.42;1772913;79;21065;-63
2021/05/29 05:28:07;;;;;;;2.70;2.50;;;;;;;30.88;29.76;98918.19;1775155;79;20962;-62
2021/05/29 05:30:34;;;;;;;2.45;2.25;;;;;;;30.97;29.20;98917.70;1772213;79;21594;-61
2021/05/29 05:33:04;;;;;;;5.05;2.30;;;;;;;31.16;29.31;98926.48;1774591;79;20996;-62
2021/05/29 05:35:28;;;;;;;2.37;2.17;;;;;;;31.53;28.95;98921.05;1777204;79;21107;-62
2021/05/29 05:37:54;;;;;;;2.45;2.25;;;;;;;31.90;27.75;98918.81;1775960;79;21610;-61
2021/05/29 05:40:21;;;;;;;3.02;2.08;;;;;;;31.84;27.83;98920.91;1773610;79;20961;-61
2021/05/29 05:42:47;;;;;;;2.02;1.82;;;;;;;31.85;28.02;98918.98;1777088;79;20980;-64
2021/05/29 05:45:14;;;;;;;7.03;2.50;;;;;;;32.10;27.67;98917.63;1774858;79;21664;-61
2021/05/29 05:47:40;;;;;;;3.47;2.05;;;;;;;32.21;27.34;98923.61;1777836;79;21005;-60
2021/05/29 05:50:09;;;;;;;2.12;1.55;;;;;;;32.15;27.37;98915.27;1775333;79;21136;-63
2021/05/29 05:52:37;;;;;;;3.55;1.98;;;;;;;31.98;27.60;98918.83;1803800;78;21056;-56
2021/05/29 05:55:06;;;;;;;4.08;2.27;;;;;;;32.07;27.70;98918.86;1755378;81;21052;-57
2021/05/29 05:57:34;;;;;;;7.78;2.08;;;;;;;32.23;27.54;98915.27;1761031;79;20980;-57
2021/05/29 06:00:01;;;;;;;5.37;2.42;;;;;;;32.35;27.44;98917.38;1731232;81;20929;-57
2021/05/29 06:02:27;;;;;;;3.62;1.65;;;;;;;32.45;27.16;98918.97;1786300;79;21035;-54
2021/05/29 06:04:53;;;;;;;4.90;1.57;;;;;;;32.37;26.17;98920.60;1778855;79;20902;-56
2021/05/29 06:07:21;;;;;;;2.95;1.40;;;;;;;32.19;26.36;98920.39;1738393;81;20960;-63
2021/05/29 06:09:48;;;;;;;1.75;1.50;;;;;;;32.26;26.31;98925.63;1760069;81;21464;-62
2021/05/29 06:12:43;;;;;;;2.33;1.27;;;;;;;32.31;26.42;98926.02;1625164;86;20985;-56
2021/05/29 06:18:03;;;;;;;2.58;1.40;;;;;;;32.24;26.07;98920.22;1628968;87;21167;-54
2021/05/29 06:20:24;;;;;;;3.65;2.10;;;;;;;32.04;26.01;98923.63;1632159;86;21068;-60
2021/05/29 06:22:51;;;;;;;2.17;1.80;;;;;;;31.76;25.49;98923.09;1627777;86;21220;-60
2021/05/29 06:25:17;;;;;;;1.65;1.17;;;;;;;31.29;25.96;98923.37;1624718;86;21123;-60
2021/05/29 06:27:43;;;;;;;1.05;0.90;;;;;;;31.05;26.31;98923.77;1628006;87;21919;-61
2021/05/29 06:30:11;;;;;;;2.40;0.90;;;;;;;30.89;26.32;98917.63;1626580;86;21049;-62
2021/05/29 06:32:38;;;;;;;2.15;1.10;;;;;;;30.90;26.69;98916.48;1625113;87;21088;-62
2021/05/29 06:35:07;;;;;;;1.37;1.25;;;;;;;30.87;26.41;98917.92;1624646;86;21179;-65
2021/05/29 06:37:35;;;;;;;3.02;1.55;;;;;;;30.82;27.01;98918.63;1655858;85;21021;-61
2021/05/29 06:40:05;;;;;;;3.00;1.15;;;;;;;31.01;27.23;98913.74;1655196;85;21093;-58
2021/05/29 06:42:31;;;;;;;2.08;1.02;;;;;;;31.01;26.24;98913.19;1662415;83;21045;-61
2021/05/29 06:44:58;;;;;;;1.10;1.00;;;;;;;30.95;26.06;98912.25;1659725;84;20969;-57
2021/05/29 06:47:24;;;;;;;4.45;1.12;;;;;;;31.05;26.32;98916.12;1695361;82;21581;-62
2021/05/29 06:49:51;;;;;;;1.07;0.98;;;;;;;31.21;26.18;98911.78;1688899;83;21070;-59
2021/05/29 06:52:22;;;;;;;2.27;1.10;;;;;;;31.36;26.01;98906.42;1689352;82;21180;-61
2021/05/29 07:00:17;;;;;;;5.63;5.13;;;;;;;31.50;25.63;98910.68;1715199;83;21019;-60
2021/05/29 07:02:44;;;;;;;2.30;1.90;;;;;;;31.49;25.75;98901.39;1700066;83;21055;-58
2021/05/29 07:05:12;;;;;;;1.65;1.10;;;;;;;31.59;25.50;98908.77;1690636;82;21053;-61
2021/05/29 07:07:39;;;;;;;2.58;1.07;;;;;;;31.48;25.79;98905.27;1707410;83;21011;-59
2021/05/29 07:10:08;;;;;;;2.12;1.07;;;;;;;31.22;25.64;98906.55;1689034;83;21617;-61
2021/05/29 07:12:34;;;;;;;3.15;1.15;;;;;;;31.07;26.09;98908.36;1685192;83;21050;-61
2021/05/29 07:15:03;;;;;;;2.95;1.47;;;;;;;30.97;26.08;98912.21;1663919;84;21054;-63
2021/05/29 07:17:32;;;;;;;1.60;1.50;;;;;;;30.75;26.06;98908.66;1688917;84;21103;-59
2021/05/29 07:19:58;;;;;;;1.42;0.93;;;;;;;30.43;26.23;98902.36;1678591;84;21125;-65
2021/05/29 07:22:24;;;;;;;2.67;1.25;;;;;;;30.17;26.26;98904.09;1677693;84;21047;-63
2021/05/29 07:24:50;;;;;;;4.03;2.00;;;;;;;29.96;26.20;98901.58;1672359;84;21720;-63
2021/05/29 07:27:17;;;;;;;4.40;4.00;;;;;;;29.68;26.41;98902.20;1676609;84;20888;-60
2021/05/29 07:29:43;;;;;;;2.65;2.02;;;;;;;29.59;27.13;98902.67;1672848;84;21093;-60
2021/05/29 07:32:10;;;;;;;2.72;1.20;;;;;;;29.78;27.03;98903.89;1669927;84;21038;-64
2021/05/29 07:34:36;;;;;;;3.62;1.80;;;;;;;30.07;26.99;98907.08;1680261;84;20919;-63
2021/05/29 07:37:04;;;;;;;2.00;1.90;;;;;;;30.33;27.03;98909.45;1679414;84;21527;-64
2021/05/29 07:39:32;;;;;;;1.98;1.60;;;;;;;30.30;26.63;98903.21;1686743;83;21607;-62
2021/05/29 07:41:59;;;;;;;2.90;2.30;;;;;;;30.01;26.67;98900.67;1689235;84;21087;-66
2021/05/29 07:44:25;;;;;;;2.25;2.05;;;;;;;29.65;26.95;98907.48;1690254;84;21031;-64
2021/05/29 07:46:52;;;;;;;3.62;1.90;;;;;;;29.24;27.92;98912.48;1690204;84;21553;-64
2021/05/29 07:49:20;;;;;;;4.75;1.87;;;;;;;29.47;28.01;98911.17;1675928;84;22341;-66
2021/05/29 07:51:46;;;;;;;2.33;1.95;;;;;;;29.81;27.54;98906.88;1682852;84;20884;-67
2021/05/29 07:54:13;;;;;;;2.65;1.92;;;;;;;30.18;27.17;98909.83;1687156;84;21228;-68
2021/05/29 07:56:39;;;;;;;2.87;1.60;;;;;;;30.56;26.99;98901.47;1686578;84;21497;-65
2021/05/29 07:59:17;;;;;;;0.90;0.90;;;;;;;30.92;26.56;98907.42;1680637;84;20995;-61
2021/05/29 08:01:35;;;;;;;3.22;0.90;;;;;;;31.21;25.95;98904.13;1691408;84;21026;-66
2021/05/29 08:04:02;;;;;;;3.12;1.25;;;;;;;31.25;25.01;98905.09;1692579;84;21074;-66
2021/05/29 08:06:29;;;;;;;4.55;1.40;;;;;;;30.81;25.59;98906.86;1677989;84;21106;-64
2021/05/29 08:08:56;;;;;;;4.83;2.55;;;;;;;30.57;25.69;98907.77;1691764;84;21019;-62
2021/05/29 08:11:23;;;;;;;2.25;1.50;;;;;;;30.53;25.94;98906.80;1685701;83;20995;-67
2021/05/29 08:13:55;;;;;;;1.92;0.95;;;;;;;30.80;25.97;98903.03;1687004;84;21023;-59
2021/05/29 08:16:22;;;;;;;0.90;0.90;;;;;;;31.13;25.28;98902.39;1679813;84;21536;-66
2021/05/29 08:18:50;;;;;;;2.75;2.17;;;;;;;31.24;25.07;98901.54;1680099;84;21139;-67
2021/05/29 08:21:18;;;;;;;1.92;1.82;;;;;;;31.19;24.90;98898.94;1679360;84;21035;-63
2021/05/29 08:23:46;;;;;;;1.67;1.40;;;;;;;30.84;25.40;98899.36;1692333;84;21034;-59
2021/05/29 08:26:13;;;;;;;2.45;1.25;;;;;;;30.78;25.68;98901.17;1679176;84;21581;-54
2021/05/29 08:28:40;;;;;;;1.42;1.02;;;;;;;30.86;25.67;98901.78;1692481;84;21573;-64
2021/05/29 08:31:07;;;;;;;1.85;1.00;;;;;;;30.94;25.74;98903.78;1673658;84;21041;-60
2021/05/29 08:33:33;;;;;;;3.20;0.88;;;;;;;30.96;24.90;98902.90;1680975;84;20983;-65
2021/05/29 08:35:59;;;;;;;1.35;0.82;;;;;;;30.79;25.24;98899.47;1687399;84;21623;-60
2021/05/29 08:38:25;;;;;;;2.10;1.00;;;;;;;30.68;25.30;98901.45;1692527;84;20999;-64
2021/05/29 08:40:52;;;;;;;2.55;0.90;;;;;;;30.44;25.66;98901.25;1692626;84;21789;-63
2021/05/29 08:43:18;;;;;;;1.32;0.80;;;;;;;30.32;26.02;98902.33;1692621;84;21145;-62
2021/05/29 08:45:45;;;;;;;1.87;0.90;;;;;;;30.00;26.45;98901.23;1690311;84;21003;-63
2021/05/29 08:48:12;;;;;;;2.55;1.02;;;;;;;29.68;26.57;98895.91;1692692;84;21612;-60
2021/05/29 08:51:12;;;;;;;1.52;1.07;;;;;;;29.14;26.99;98901.70;1692354;84;21020;-60
2021/05/29 08:53:06;;;;;;;1.95;1.00;;;;;;;28.72;27.74;98906.91;1688732;84;20915;-60
2021/05/29 08:55:33;;;;;;;1.27;0.98;;;;;;;28.40;27.92;98907.45;1692536;84;21050;-57
2021/05/29 08:57:59;;;;;;;4.03;1.02;;;;;;;28.09;28.15;98912.06;1692756;84;21038;-57
2021/05/29 09:00:27;;;;;;;1.35;1.15;;;;;;;27.78;28.67;98914.16;1674858;84;21064;-61
2021/05/29 09:03:12;;;;;;;3.98;0.90;;;;;;;27.35;29.04;98914.73;1691368;84;21046;-61
2021/05/29 09:05:49;;;;;;;1.45;1.10;;;;;;;26.90;29.41;98907.36;1680834;84;21484;-60
2021/05/29 09:08:14;;;;;;;1.92;1.12;;;;;;;26.57;29.45;98911.47;1679737;84;21684;-59
2021/05/29 09:10:48;;;;;;;2.70;1.02;;;;;;;26.37;29.58;98907.03;1667033;84;21559;-59
2021/05/29 09:13:21;;;;;;;1.07;1.02;;;;;;;26.30;29.70;98906.55;1700731;83;21580;-59
2021/05/29 09:15:55;;;;;;;1.42;1.00;;;;;;;26.15;29.71;98902.02;1699371;82;21703;-61
2021/05/29 09:18:48;;;;;;;1.65;0.95;;;;;;;25.91;30.33;98909.28;1692833;83;21110;-65
2021/05/29 09:21:33;;;;;;;2.50;1.00;;;;;;;25.81;30.72;98908.54;1695659;83;21151;-62
2021/05/29 09:24:05;;;;;;;4.40;1.10;;;;;;;25.65;31.12;98907.25;1695937;83;21038;-62
2021/05/29 09:26:54;;;;;;;2.22;1.05;;;;;;;25.50;31.68;98901.89;1692678;82;21011;-66
2021/05/29 09:29:29;;;;;;;2.87;1.00;;;;;;;25.36;32.35;98901.41;1689129;83;21059;-59
2021/05/29 09:32:04;;;;;;;3.75;1.40;;;;;;;25.24;32.95;98904.44;1688400;82;21048;-63
2021/05/29 09:34:43;;;;;;;2.35;1.25;;;;;;;25.40;33.28;98903.28;1691391;83;21081;-62
2021/05/29 09:37:15;;;;;;;0.93;0.88;;;;;;;25.49;32.57;98903.55;1689023;82;21131;-63
2021/05/29 09:39:47;;;;;;;1.72;1.55;;;;;;;25.37;32.04;98900.33;1689543;82;21035;-59
2021/05/29 09:42:15;;;;;;;0.85;0.70;;;;;;;25.30;31.28;98897.89;1689062;82;21110;-62
2021/05/29 09:44:41;;;;;;;1.45;0.80;;;;;;;25.15;30.88;98901.50;1689208;83;21075;-62
2021/05/29 09:47:12;;;;;;;0.65;0.65;;;;;;;25.07;31.15;98908.06;1688779;83;21065;-60
2021/05/29 09:49:52;;;;;;;1.62;0.88;;;;;;;25.05;31.41;98900.73;1696145;82;21508;-63
2021/05/29 09:52:37;;;;;;;3.75;1.10;;;;;;;25.06;31.90;98906.42;1702847;82;20999;-63
2021/05/29 09:55:11;;;;;;;2.60;0.80;;;;;;;24.94;32.28;98912.19;1702371;83;21028;-61
2021/05/29 09:57:50;;;;;;;2.20;0.90;;;;;;;24.80;32.39;98908.95;1704861;82;20939;-60
2021/05/29 10:00:17;;;;;;;2.08;0.88;;;;;;;24.74;32.12;98909.47;1713152;82;21087;-61
2021/05/29 10:03:04;;;;;;;4.25;1.60;;;;;;;24.68;32.21;98919.29;1693152;83;21019;-63
2021/05/29 10:05:33;;;;;;;4.28;1.60;;;;;;;24.61;32.30;98914.15;1695980;83;21599;-54
2021/05/29 10:08:05;;;;;;;3.20;1.22;;;;;;;24.54;32.71;98910.34;1695044;83;21604;-53
2021/05/29 10:10:33;;;;;;;2.33;1.40;;;;;;;24.50;34.20;98921.50;1654177;85;21122;-57
2021/05/29 10:13:02;;;;;;;2.62;1.40;;;;;;;24.30;35.03;98917.98;1654147;84;21668;-60
2021/05/29 10:15:30;;;;;;;1.32;1.22;;;;;;;24.14;35.75;98917.70;1694301;81;20956;-63
2021/05/29 10:17:57;;;;;;;2.12;1.70;;;;;;;24.02;36.41;98922.00;1705698;82;21031;-58
2021/05/29 10:20:24;;;;;;;1.82;1.57;;;;;;;23.93;36.98;98927.14;1695774;83;21609;-59
2021/05/29 10:22:51;;;;;;;3.42;1.87;;;;;;;23.80;37.91;98927.67;1694814;82;21055;-58
2021/05/29 10:25:19;;;;;;;7.10;2.70;;;;;;;23.60;38.27;98926.81;1694204;83;21070;-61
2021/05/29 10:27:51;;;;;;;5.78;3.35;;;;;;;23.48;39.08;98918.92;1712634;82;20944;-57
2021/05/29 10:30:22;;;;;;;9.75;8.38;;;;;;;23.35;39.67;98924.81;1707891;82;21585;-59
2021/05/29 10:33:07;;;;;;;7.28;5.37;;;;;;;;;;1696221;82;21039;-58
2021/05/29 10:35:35;;;;;;;6.60;5.53;;;;;;;23.15;41.69;98922.82;1706201;81;21011;-60
2021/05/29 10:38:01;;;;;;;2.98;2.72;;;;;;;23.17;43.04;98923.40;1703118;83;21146;-61
2021/05/29 10:40:33;;;;;;;3.40;2.30;;;;;;;23.17;42.22;98922.05;1715451;81;21596;-57
2021/05/29 10:43:19;;;;;;;6.78;2.33;;;;;;;23.11;41.86;98912.23;1707293;82;21026;-57
2021/05/29 10:45:57;;;;;;;3.40;2.30;;;;;;;23.00;41.86;98920.58;1684323;84;20977;-57
2021/05/29 10:48:27;;;;;;;2.40;2.05;;;;;;;22.97;41.69;98916.50;1705926;82;21047;-56
2021/05/29 10:51:06;;;;;;;5.42;2.77;;;;;;;22.95;41.48;98912.42;1712761;82;21112;-55
2021/05/29 10:53:53;;;;;;;4.17;3.77;;;;;;;22.95;41.83;98910.53;1708825;81;20947;-56
2021/05/29 10:56:24;;;;;;;3.30;2.65;;;;;;;22.99;42.04;98905.41;1711224;81;20940;-59
2021/05/29 10:59:19;;;;;;;3.27;2.72;;;;;;;22.99;41.35;98910.30;1702133;83;20971;-61
2021/05/29 11:01:57;;;;;;;3.15;2.00;;;;;;;22.85;40.87;98907.77;1713532;81;20964;-58
2021/05/29 11:04:23;;;;;;;2.27;1.72;;;;;;;22.83;40.66;98905.87;1697563;83;21177;-58
2021/05/29 11:07:05;;;;;;;3.15;2.08;;;;;;;22.80;40.60;98905.03;1712226;81;21034;-57
2021/05/29 11:09:48;;;;;;;6.97;2.60;;;;;;;22.85;40.86;98904.23;1717279;82;21023;-57
2021/05/29 11:12:16;;;;;;;3.33;2.00;;;;;;;22.88;40.85;98907.78;1700615;81;21007;-59
2021/05/29 11:14:55;;;;;;;5.60;2.83;;;;;;;22.93;40.72;98907.27;1712653;82;20964;-55
2021/05/29 11:17:27;;;;;;;4.72;2.95;;;;;;;22.92;40.44;98908.88;1704529;82;21303;-59
2021/05/29 11:20:12;;;;;;;4.75;2.40;;;;;;;22.83;40.42;98897.73;1698062;83;20999;-57
2021/05/29 11:22:50;;;;;;;3.95;2.67;;;;;;;22.91;40.21;98900.48;1715221;82;21023;-58
2021/05/29 11:25:21;;;;;;;4.33;2.22;;;;;;;23.05;40.08;98898.36;1713047;82;21031;-57
2021/05/29 11:27:49;;;;;;;1.65;1.50;;;;;;;23.21;40.63;98894.64;1713942;83;20960;-60
2021/05/29 11:30:25;;;;;;;1.22;1.10;;;;;;;23.34;39.69;98899.57;1713840;83;21690;-60
2021/05/29 11:35:49;;;;;;;1.77;1.65;;;;;;;23.48;38.37;98896.39;1714202;82;21083;-55
2021/05/29 11:38:31;;;;;;;1.22;1.15;;;;;;;23.54;37.93;98896.69;1705755;83;21624;-55
2021/05/29 11:41:11;;;;;;;1.30;1.20;;;;;;;23.63;37.93;98890.98;1711882;83;21517;-59
2021/05/29 11:43:54;;;;;;;1.30;1.20;;;;;;;23.72;37.59;98890.20;1702454;83;21100;-59
2021/05/29 11:46:27;;;;;;;2.87;1.35;;;;;;;23.80;37.52;98882.07;1706741;83;22083;-60
2021/05/29 11:49:03;;;;;;;2.25;1.52;;;;;;;23.97;38.08;98888.05;1701500;82;21039;-58
2021/05/29 11:51:38;;;;;;;4.33;1.72;;;;;;;24.16;37.82;98882.38;1711094;82;21632;-57